sensor_id;sensor_type;location;lat;lon;timestamp;P1;durP1;ratioP1;P2;durP2;ratioP2
60478;SDS011;46321;48.398;11.754;2023-12-20T00:00:02;6.15;;;2.80;;
60478;SDS011;46321;48.398;11.754;2023-12-20T00:02:28;4.40;;;2.55;;
60478;SDS011;46321;48.398;11.754;2023-12-20T00:04:53;3.90;;;2.65;;
60478;SDS011;46321;48.398;11.754;2023-12-20T00:07:18;5.07;;;2.42;;
60478;SDS011;46321;48.398;11.754;2023-12-20T00:09:44;3.67;;;2.35;;
60478;SDS011;46321;48.398;11.754;2023-12-20T00:12:09;3.80;;;2.60;;
60478;SDS011;46321;48.398;11.754;2023-12-20T00:14:35;3.78;;;2.20;;
60478;SDS011;46321;48.398;11.754;2023-12-20T00:17:01;4.03;;;2.40;;
60478;SDS011;46321;48.398;11.754;2023-12-20T00:19:26;3.95;;;2.13;;
60478;SDS011;46321;48.398;11.754;2023-12-20T00:21:51;4.45;;;2.08;;
60478;SDS011;46321;48.398;11.754;2023-12-20T00:24:16;3.80;;;1.92;;
60478;SDS011;46321;48.398;11.754;2023-12-20T00:26:42;3.05;;;2.10;;
60478;SDS011;46321;48.398;11.754;2023-12-20T00:29:07;3.85;;;2.08;;
60478;SDS011;46321;48.398;11.754;2023-12-20T00:31:32;4.10;;;2.13;;
60478;SDS011;46321;48.398;11.754;2023-12-20T00:33:58;3.17;;;2.00;;
60478;SDS011;46321;48.398;11.754;2023-12-20T00:36:23;3.80;;;2.38;;
60478;SDS011;46321;48.398;11.754;2023-12-20T00:38:48;3.53;;;2.08;;
60478;SDS011;46321;48.398;11.754;2023-12-20T00:41:14;3.10;;;2.00;;
60478;SDS011;46321;48.398;11.754;2023-12-20T00:43:40;3.42;;;2.08;;
60478;SDS011;46321;48.398;11.754;2023-12-20T00:46:05;2.55;;;1.67;;
60478;SDS011;46321;48.398;11.754;2023-12-20T00:48:30;3.05;;;1.90;;
60478;SDS011;46321;48.398;11.754;2023-12-20T00:50:56;3.47;;;2.15;;
60478;SDS011;46321;48.398;11.754;2023-12-20T00:53:22;4.70;;;2.20;;
60478;SDS011;46321;48.398;11.754;2023-12-20T00:55:47;4.85;;;2.15;;
60478;SDS011;46321;48.398;11.754;2023-12-20T00:58:13;3.28;;;2.20;;
60478;SDS011;46321;48.398;11.754;2023-12-20T01:00:40;5.30;;;2.63;;
60478;SDS011;46321;48.398;11.754;2023-12-20T01:03:06;3.85;;;2.10;;
60478;SDS011;46321;48.398;11.754;2023-12-20T01:05:31;4.60;;;2.08;;
60478;SDS011;46321;48.398;11.754;2023-12-20T01:07:57;3.08;;;1.85;;
60478;SDS011;46321;48.398;11.754;2023-12-20T01:10:22;3.35;;;1.98;;
60478;SDS011;46321;48.398;11.754;2023-12-20T01:12:47;4.28;;;2.10;;
60478;SDS011;46321;48.398;11.754;2023-12-20T01:15:13;2.88;;;1.90;;
60478;SDS011;46321;48.398;11.754;2023-12-20T01:17:38;3.38;;;1.98;;
60478;SDS011;46321;48.398;11.754;2023-12-20T01:20:03;3.13;;;2.20;;
60478;SDS011;46321;48.398;11.754;2023-12-20T01:22:29;3.22;;;1.98;;
60478;SDS011;46321;48.398;11.754;2023-12-20T01:24:54;2.88;;;1.92;;
60478;SDS011;46321;48.398;11.754;2023-12-20T01:27:19;3.00;;;2.25;;
60478;SDS011;46321;48.398;11.754;2023-12-20T01:29:45;5.40;;;2.30;;
60478;SDS011;46321;48.398;11.754;2023-12-20T01:32:10;3.60;;;2.22;;
60478;SDS011;46321;48.398;11.754;2023-12-20T01:34:35;3.60;;;2.40;;
60478;SDS011;46321;48.398;11.754;2023-12-20T01:37:01;4.75;;;2.47;;
60478;SDS011;46321;48.398;11.754;2023-12-20T01:39:27;4.53;;;2.58;;
60478;SDS011;46321;48.398;11.754;2023-12-20T01:41:52;3.60;;;2.38;;
60478;SDS011;46321;48.398;11.754;2023-12-20T01:44:18;4.30;;;2.45;;
60478;SDS011;46321;48.398;11.754;2023-12-20T01:46:43;3.15;;;2.30;;
60478;SDS011;46321;48.398;11.754;2023-12-20T01:49:08;3.45;;;2.17;;
60478;SDS011;46321;48.398;11.754;2023-12-20T01:51:33;4.00;;;2.40;;
60478;SDS011;46321;48.398;11.754;2023-12-20T01:54:00;4.65;;;2.28;;
60478;SDS011;46321;48.398;11.754;2023-12-20T01:56:26;4.47;;;2.55;;
60478;SDS011;46321;48.398;11.754;2023-12-20T01:58:53;6.03;;;2.67;;
60478;SDS011;46321;48.398;11.754;2023-12-20T02:01:19;4.15;;;2.38;;
60478;SDS011;46321;48.398;11.754;2023-12-20T02:03:45;4.85;;;2.63;;
60478;SDS011;46321;48.398;11.754;2023-12-20T02:06:11;3.95;;;2.60;;
60478;SDS011;46321;48.398;11.754;2023-12-20T02:08:36;4.35;;;2.20;;
60478;SDS011;46321;48.398;11.754;2023-12-20T02:11:02;5.75;;;2.60;;
60478;SDS011;46321;48.398;11.754;2023-12-20T02:13:27;3.92;;;2.13;;
60478;SDS011;46321;48.398;11.754;2023-12-20T02:15:53;3.40;;;2.20;;
60478;SDS011;46321;48.398;11.754;2023-12-20T02:18:19;3.38;;;2.13;;
60478;SDS011;46321;48.398;11.754;2023-12-20T02:20:44;3.90;;;2.08;;
60478;SDS011;46321;48.398;11.754;2023-12-20T02:23:10;4.20;;;2.40;;
60478;SDS011;46321;48.398;11.754;2023-12-20T02:25:35;3.58;;;2.40;;
60478;SDS011;46321;48.398;11.754;2023-12-20T02:28:01;5.28;;;2.03;;
60478;SDS011;46321;48.398;11.754;2023-12-20T02:30:27;7.00;;;2.20;;
60478;SDS011;46321;48.398;11.754;2023-12-20T02:32:52;5.60;;;2.40;;
60478;SDS011;46321;48.398;11.754;2023-12-20T02:35:18;4.05;;;2.33;;
60478;SDS011;46321;48.398;11.754;2023-12-20T02:37:43;3.80;;;2.13;;
60478;SDS011;46321;48.398;11.754;2023-12-20T02:40:08;3.55;;;2.00;;
60478;SDS011;46321;48.398;11.754;2023-12-20T02:42:34;3.35;;;2.00;;
60478;SDS011;46321;48.398;11.754;2023-12-20T02:44:59;3.70;;;2.25;;
60478;SDS011;46321;48.398;11.754;2023-12-20T02:47:25;3.25;;;2.00;;
60478;SDS011;46321;48.398;11.754;2023-12-20T02:49:50;4.60;;;2.20;;
60478;SDS011;46321;48.398;11.754;2023-12-20T02:52:15;4.85;;;2.13;;
60478;SDS011;46321;48.398;11.754;2023-12-20T02:54:40;3.28;;;2.05;;
60478;SDS011;46321;48.398;11.754;2023-12-20T02:57:06;2.80;;;2.03;;
60478;SDS011;46321;48.398;11.754;2023-12-20T02:59:31;4.53;;;2.20;;
60478;SDS011;46321;48.398;11.754;2023-12-20T03:01:56;3.15;;;1.80;;
60478;SDS011;46321;48.398;11.754;2023-12-20T03:04:22;2.88;;;2.05;;
60478;SDS011;46321;48.398;11.754;2023-12-20T03:06:47;2.28;;;1.50;;
60478;SDS011;46321;48.398;11.754;2023-12-20T03:09:12;2.65;;;1.67;;
60478;SDS011;46321;48.398;11.754;2023-12-20T03:11:38;2.22;;;1.48;;
60478;SDS011;46321;48.398;11.754;2023-12-20T03:14:03;2.58;;;1.60;;
60478;SDS011;46321;48.398;11.754;2023-12-20T03:16:29;3.30;;;1.70;;
60478;SDS011;46321;48.398;11.754;2023-12-20T03:18:56;2.58;;;1.45;;
60478;SDS011;46321;48.398;11.754;2023-12-20T03:21:21;3.80;;;1.55;;
60478;SDS011;46321;48.398;11.754;2023-12-20T03:23:46;2.53;;;1.50;;
60478;SDS011;46321;48.398;11.754;2023-12-20T03:26:11;3.15;;;1.77;;
60478;SDS011;46321;48.398;11.754;2023-12-20T03:28:37;2.85;;;1.58;;
60478;SDS011;46321;48.398;11.754;2023-12-20T03:31:02;4.00;;;1.63;;
60478;SDS011;46321;48.398;11.754;2023-12-20T03:33:28;1.95;;;1.40;;
60478;SDS011;46321;48.398;11.754;2023-12-20T03:35:54;2.55;;;1.77;;
60478;SDS011;46321;48.398;11.754;2023-12-20T03:38:19;2.67;;;1.45;;
60478;SDS011;46321;48.398;11.754;2023-12-20T03:40:45;3.13;;;1.75;;
60478;SDS011;46321;48.398;11.754;2023-12-20T03:43:10;4.13;;;1.83;;
60478;SDS011;46321;48.398;11.754;2023-12-20T03:45:35;2.90;;;1.63;;
60478;SDS011;46321;48.398;11.754;2023-12-20T03:48:01;2.53;;;1.60;;
60478;SDS011;46321;48.398;11.754;2023-12-20T03:50:26;1.83;;;1.35;;
60478;SDS011;46321;48.398;11.754;2023-12-20T03:52:52;2.95;;;1.60;;
60478;SDS011;46321;48.398;11.754;2023-12-20T03:55:17;5.40;;;1.60;;
60478;SDS011;46321;48.398;11.754;2023-12-20T03:57:42;3.13;;;1.70;;
60478;SDS011;46321;48.398;11.754;2023-12-20T04:00:08;2.88;;;1.60;;
60478;SDS011;46321;48.398;11.754;2023-12-20T04:02:37;2.50;;;1.35;;
60478;SDS011;46321;48.398;11.754;2023-12-20T04:05:03;3.15;;;1.73;;
60478;SDS011;46321;48.398;11.754;2023-12-20T04:07:29;2.90;;;1.60;;
60478;SDS011;46321;48.398;11.754;2023-12-20T04:09:55;2.50;;;1.48;;
60478;SDS011;46321;48.398;11.754;2023-12-20T04:12:20;2.90;;;1.65;;
60478;SDS011;46321;48.398;11.754;2023-12-20T04:14:45;2.42;;;1.40;;
60478;SDS011;46321;48.398;11.754;2023-12-20T04:17:10;3.20;;;1.60;;
60478;SDS011;46321;48.398;11.754;2023-12-20T04:19:36;2.47;;;1.50;;
60478;SDS011;46321;48.398;11.754;2023-12-20T04:22:01;4.43;;;1.65;;
60478;SDS011;46321;48.398;11.754;2023-12-20T04:24:26;2.35;;;1.80;;
60478;SDS011;46321;48.398;11.754;2023-12-20T04:26:51;3.88;;;1.55;;
60478;SDS011;46321;48.398;11.754;2023-12-20T04:29:17;3.25;;;1.95;;
60478;SDS011;46321;48.398;11.754;2023-12-20T04:31:42;2.42;;;1.40;;
60478;SDS011;46321;48.398;11.754;2023-12-20T04:34:07;2.25;;;1.45;;
60478;SDS011;46321;48.398;11.754;2023-12-20T04:36:32;3.40;;;1.85;;
60478;SDS011;46321;48.398;11.754;2023-12-20T04:38:58;2.88;;;1.63;;
60478;SDS011;46321;48.398;11.754;2023-12-20T04:41:24;2.55;;;1.67;;
60478;SDS011;46321;48.398;11.754;2023-12-20T04:43:50;2.65;;;1.73;;
60478;SDS011;46321;48.398;11.754;2023-12-20T04:46:15;2.67;;;1.60;;
60478;SDS011;46321;48.398;11.754;2023-12-20T04:48:40;2.70;;;1.70;;
60478;SDS011;46321;48.398;11.754;2023-12-20T04:51:05;3.55;;;1.70;;
60478;SDS011;46321;48.398;11.754;2023-12-20T04:53:31;2.67;;;1.20;;
60478;SDS011;46321;48.398;11.754;2023-12-20T04:55:56;1.95;;;1.30;;
60478;SDS011;46321;48.398;11.754;2023-12-20T04:58:21;2.20;;;1.58;;
60478;SDS011;46321;48.398;11.754;2023-12-20T05:00:46;4.15;;;1.58;;
60478;SDS011;46321;48.398;11.754;2023-12-20T05:03:12;3.53;;;1.70;;
60478;SDS011;46321;48.398;11.754;2023-12-20T05:05:37;2.65;;;1.67;;
60478;SDS011;46321;48.398;11.754;2023-12-20T05:08:02;3.10;;;1.95;;
60478;SDS011;46321;48.398;11.754;2023-12-20T05:10:29;2.50;;;2.00;;
60478;SDS011;46321;48.398;11.754;2023-12-20T05:12:54;2.78;;;1.75;;
60478;SDS011;46321;48.398;11.754;2023-12-20T05:15:19;2.20;;;1.48;;
60478;SDS011;46321;48.398;11.754;2023-12-20T05:17:44;3.63;;;1.95;;
60478;SDS011;46321;48.398;11.754;2023-12-20T05:20:10;2.78;;;1.63;;
60478;SDS011;46321;48.398;11.754;2023-12-20T05:22:36;3.58;;;1.80;;
60478;SDS011;46321;48.398;11.754;2023-12-20T05:25:01;2.22;;;1.38;;
60478;SDS011;46321;48.398;11.754;2023-12-20T05:27:26;2.97;;;1.80;;
60478;SDS011;46321;48.398;11.754;2023-12-20T05:29:51;3.15;;;1.90;;
60478;SDS011;46321;48.398;11.754;2023-12-20T05:32:17;3.15;;;1.80;;
60478;SDS011;46321;48.398;11.754;2023-12-20T05:34:42;3.28;;;2.00;;
60478;SDS011;46321;48.398;11.754;2023-12-20T05:37:07;2.45;;;1.60;;
60478;SDS011;46321;48.398;11.754;2023-12-20T05:39:32;2.50;;;1.50;;
60478;SDS011;46321;48.398;11.754;2023-12-20T05:41:58;3.72;;;2.15;;
60478;SDS011;46321;48.398;11.754;2023-12-20T05:44:23;3.20;;;1.90;;
60478;SDS011;46321;48.398;11.754;2023-12-20T05:46:48;2.95;;;1.92;;
60478;SDS011;46321;48.398;11.754;2023-12-20T05:49:13;3.47;;;1.67;;
60478;SDS011;46321;48.398;11.754;2023-12-20T05:51:39;2.75;;;1.80;;
60478;SDS011;46321;48.398;11.754;2023-12-20T05:54:04;2.47;;;1.73;;
60478;SDS011;46321;48.398;11.754;2023-12-20T05:56:29;3.10;;;1.80;;
60478;SDS011;46321;48.398;11.754;2023-12-20T05:58:55;3.40;;;1.60;;
60478;SDS011;46321;48.398;11.754;2023-12-20T06:01:20;2.67;;;1.83;;
60478;SDS011;46321;48.398;11.754;2023-12-20T06:03:45;2.58;;;1.83;;
60478;SDS011;46321;48.398;11.754;2023-12-20T06:06:13;2.08;;;1.40;;
60478;SDS011;46321;48.398;11.754;2023-12-20T06:08:38;3.85;;;1.70;;
60478;SDS011;46321;48.398;11.754;2023-12-20T06:11:04;1.98;;;1.48;;
60478;SDS011;46321;48.398;11.754;2023-12-20T06:13:30;2.53;;;1.65;;
60478;SDS011;46321;48.398;11.754;2023-12-20T06:15:56;2.47;;;1.55;;
60478;SDS011;46321;48.398;11.754;2023-12-20T06:18:21;2.60;;;1.48;;
60478;SDS011;46321;48.398;11.754;2023-12-20T06:20:47;2.38;;;1.52;;
60478;SDS011;46321;48.398;11.754;2023-12-20T06:23:12;2.30;;;1.60;;
60478;SDS011;46321;48.398;11.754;2023-12-20T06:25:37;6.78;;;1.55;;
60478;SDS011;46321;48.398;11.754;2023-12-20T06:28:03;2.47;;;1.45;;
60478;SDS011;46321;48.398;11.754;2023-12-20T06:30:28;2.28;;;1.20;;
60478;SDS011;46321;48.398;11.754;2023-12-20T06:32:54;2.42;;;1.40;;
60478;SDS011;46321;48.398;11.754;2023-12-20T06:35:19;2.30;;;1.58;;
60478;SDS011;46321;48.398;11.754;2023-12-20T06:37:45;2.33;;;1.40;;
60478;SDS011;46321;48.398;11.754;2023-12-20T06:40:10;2.38;;;1.55;;
60478;SDS011;46321;48.398;11.754;2023-12-20T06:42:36;2.67;;;1.50;;
60478;SDS011;46321;48.398;11.754;2023-12-20T06:45:01;2.30;;;1.50;;
60478;SDS011;46321;48.398;11.754;2023-12-20T06:47:27;2.85;;;1.60;;
60478;SDS011;46321;48.398;11.754;2023-12-20T06:49:52;1.58;;;1.25;;
60478;SDS011;46321;48.398;11.754;2023-12-20T06:52:17;2.53;;;1.60;;
60478;SDS011;46321;48.398;11.754;2023-12-20T06:54:43;1.98;;;1.35;;
60478;SDS011;46321;48.398;11.754;2023-12-20T06:57:08;4.65;;;2.63;;
60478;SDS011;46321;48.398;11.754;2023-12-20T06:59:37;3.20;;;1.70;;
60478;SDS011;46321;48.398;11.754;2023-12-20T07:02:03;3.20;;;1.65;;
60478;SDS011;46321;48.398;11.754;2023-12-20T07:04:30;1.88;;;1.27;;
60478;SDS011;46321;48.398;11.754;2023-12-20T07:06:55;4.03;;;1.48;;
60478;SDS011;46321;48.398;11.754;2023-12-20T07:09:22;2.55;;;1.70;;
60478;SDS011;46321;48.398;11.754;2023-12-20T07:11:47;3.45;;;2.08;;
60478;SDS011;46321;48.398;11.754;2023-12-20T07:14:13;2.22;;;1.55;;
60478;SDS011;46321;48.398;11.754;2023-12-20T07:16:38;3.13;;;1.60;;
60478;SDS011;46321;48.398;11.754;2023-12-20T07:19:04;4.45;;;1.52;;
60478;SDS011;46321;48.398;11.754;2023-12-20T07:21:29;4.55;;;1.92;;
60478;SDS011;46321;48.398;11.754;2023-12-20T07:23:54;3.72;;;2.20;;
60478;SDS011;46321;48.398;11.754;2023-12-20T07:26:19;8.02;;;4.75;;
60478;SDS011;46321;48.398;11.754;2023-12-20T07:28:45;5.10;;;3.90;;
60478;SDS011;46321;48.398;11.754;2023-12-20T07:31:11;4.45;;;3.00;;
60478;SDS011;46321;48.398;11.754;2023-12-20T07:33:36;4.97;;;2.28;;
60478;SDS011;46321;48.398;11.754;2023-12-20T07:36:01;4.28;;;2.67;;
60478;SDS011;46321;48.398;11.754;2023-12-20T07:38:27;5.53;;;3.00;;
60478;SDS011;46321;48.398;11.754;2023-12-20T07:40:52;5.63;;;3.55;;
60478;SDS011;46321;48.398;11.754;2023-12-20T07:43:17;5.63;;;3.70;;
60478;SDS011;46321;48.398;11.754;2023-12-20T07:45:44;6.03;;;3.40;;
60478;SDS011;46321;48.398;11.754;2023-12-20T07:48:09;5.07;;;3.03;;
60478;SDS011;46321;48.398;11.754;2023-12-20T07:50:34;6.35;;;3.70;;
60478;SDS011;46321;48.398;11.754;2023-12-20T07:52:59;5.43;;;3.33;;
60478;SDS011;46321;48.398;11.754;2023-12-20T07:55:26;7.18;;;3.90;;
60478;SDS011;46321;48.398;11.754;2023-12-20T07:57:51;6.35;;;3.45;;
60478;SDS011;46321;48.398;11.754;2023-12-20T08:00:17;6.05;;;3.00;;
60478;SDS011;46321;48.398;11.754;2023-12-20T08:02:42;7.13;;;3.42;;
60478;SDS011;46321;48.398;11.754;2023-12-20T08:05:07;5.88;;;3.35;;
60478;SDS011;46321;48.398;11.754;2023-12-20T08:07:33;5.80;;;3.60;;
60478;SDS011;46321;48.398;11.754;2023-12-20T08:09:58;8.55;;;4.68;;
60478;SDS011;46321;48.398;11.754;2023-12-20T08:12:23;6.07;;;3.75;;
60478;SDS011;46321;48.398;11.754;2023-12-20T08:14:50;8.15;;;4.10;;
60478;SDS011;46321;48.398;11.754;2023-12-20T08:17:16;8.57;;;4.45;;
60478;SDS011;46321;48.398;11.754;2023-12-20T08:19:43;8.07;;;4.75;;
60478;SDS011;46321;48.398;11.754;2023-12-20T08:22:08;11.98;;;5.85;;
60478;SDS011;46321;48.398;11.754;2023-12-20T08:27:01;7.78;;;4.28;;
60478;SDS011;46321;48.398;11.754;2023-12-20T08:29:26;7.85;;;4.10;;
60478;SDS011;46321;48.398;11.754;2023-12-20T08:31:52;7.43;;;4.10;;
60478;SDS011;46321;48.398;11.754;2023-12-20T08:34:19;6.95;;;4.25;;
60478;SDS011;46321;48.398;11.754;2023-12-20T08:36:44;18.70;;;7.80;;
60478;SDS011;46321;48.398;11.754;2023-12-20T08:39:09;10.60;;;6.22;;
60478;SDS011;46321;48.398;11.754;2023-12-20T08:41:35;8.18;;;4.38;;
60478;SDS011;46321;48.398;11.754;2023-12-20T08:44:00;7.10;;;4.70;;
60478;SDS011;46321;48.398;11.754;2023-12-20T08:46:25;6.00;;;3.65;;
60478;SDS011;46321;48.398;11.754;2023-12-20T08:48:50;8.48;;;4.47;;
60478;SDS011;46321;48.398;11.754;2023-12-20T08:51:16;7.68;;;3.67;;
60478;SDS011;46321;48.398;11.754;2023-12-20T08:53:41;6.93;;;3.83;;
60478;SDS011;46321;48.398;11.754;2023-12-20T08:56:06;8.52;;;4.70;;
60478;SDS011;46321;48.398;11.754;2023-12-20T08:58:32;6.40;;;3.53;;
60478;SDS011;46321;48.398;11.754;2023-12-20T09:00:58;7.57;;;3.90;;
60478;SDS011;46321;48.398;11.754;2023-12-20T09:03:23;10.98;;;5.38;;
60478;SDS011;46321;48.398;11.754;2023-12-20T09:05:49;8.20;;;4.10;;
60478;SDS011;46321;48.398;11.754;2023-12-20T09:08:14;8.15;;;4.53;;
60478;SDS011;46321;48.398;11.754;2023-12-20T09:10:39;12.00;;;6.00;;
60478;SDS011;46321;48.398;11.754;2023-12-20T09:13:05;9.93;;;4.47;;
60478;SDS011;46321;48.398;11.754;2023-12-20T09:15:30;6.63;;;3.47;;
60478;SDS011;46321;48.398;11.754;2023-12-20T09:17:55;8.10;;;4.40;;
60478;SDS011;46321;48.398;11.754;2023-12-20T09:20:21;7.80;;;4.20;;
60478;SDS011;46321;48.398;11.754;2023-12-20T09:22:48;5.57;;;3.20;;
60478;SDS011;46321;48.398;11.754;2023-12-20T09:25:13;9.45;;;4.90;;
60478;SDS011;46321;48.398;11.754;2023-12-20T09:27:40;9.00;;;4.82;;
60478;SDS011;46321;48.398;11.754;2023-12-20T09:30:06;8.80;;;4.60;;
60478;SDS011;46321;48.398;11.754;2023-12-20T09:32:32;6.03;;;3.58;;
60478;SDS011;46321;48.398;11.754;2023-12-20T09:34:57;4.47;;;2.88;;
60478;SDS011;46321;48.398;11.754;2023-12-20T09:37:23;5.97;;;2.88;;
60478;SDS011;46321;48.398;11.754;2023-12-20T09:39:50;5.82;;;3.00;;
60478;SDS011;46321;48.398;11.754;2023-12-20T09:42:17;4.88;;;3.00;;
60478;SDS011;46321;48.398;11.754;2023-12-20T09:44:49;4.55;;;2.72;;
60478;SDS011;46321;48.398;11.754;2023-12-20T09:47:15;4.10;;;2.47;;
60478;SDS011;46321;48.398;11.754;2023-12-20T09:49:40;7.00;;;3.35;;
60478;SDS011;46321;48.398;11.754;2023-12-20T09:52:08;4.82;;;2.95;;
60478;SDS011;46321;48.398;11.754;2023-12-20T09:54:35;3.72;;;2.30;;
60478;SDS011;46321;48.398;11.754;2023-12-20T09:57:01;5.88;;;2.33;;
60478;SDS011;46321;48.398;11.754;2023-12-20T09:59:26;3.63;;;2.40;;
60478;SDS011;46321;48.398;11.754;2023-12-20T10:01:53;3.80;;;2.33;;
60478;SDS011;46321;48.398;11.754;2023-12-20T10:04:21;4.57;;;2.60;;
60478;SDS011;46321;48.398;11.754;2023-12-20T10:06:47;5.20;;;2.60;;
60478;SDS011;46321;48.398;11.754;2023-12-20T10:09:12;3.30;;;2.30;;
60478;SDS011;46321;48.398;11.754;2023-12-20T10:11:39;3.20;;;2.10;;
60478;SDS011;46321;48.398;11.754;2023-12-20T10:14:05;5.38;;;2.80;;
60478;SDS011;46321;48.398;11.754;2023-12-20T10:16:31;3.55;;;2.35;;
60478;SDS011;46321;48.398;11.754;2023-12-20T10:18:58;4.00;;;2.30;;
60478;SDS011;46321;48.398;11.754;2023-12-20T10:21:25;5.22;;;2.33;;
60478;SDS011;46321;48.398;11.754;2023-12-20T10:23:51;2.97;;;2.20;;
60478;SDS011;46321;48.398;11.754;2023-12-20T10:26:26;2.90;;;2.03;;
60478;SDS011;46321;48.398;11.754;2023-12-20T10:28:55;3.67;;;2.40;;
60478;SDS011;46321;48.398;11.754;2023-12-20T10:31:32;3.35;;;2.28;;
60478;SDS011;46321;48.398;11.754;2023-12-20T10:34:00;3.00;;;1.85;;
60478;SDS011;46321;48.398;11.754;2023-12-20T10:36:30;3.42;;;2.13;;
60478;SDS011;46321;48.398;11.754;2023-12-20T10:38:57;2.80;;;2.08;;
60478;SDS011;46321;48.398;11.754;2023-12-20T10:41:27;2.30;;;1.70;;
60478;SDS011;46321;48.398;11.754;2023-12-20T10:44:00;6.18;;;3.42;;
60478;SDS011;46321;48.398;11.754;2023-12-20T10:46:27;5.23;;;2.80;;
60478;SDS011;46321;48.398;11.754;2023-12-20T10:48:54;3.67;;;2.05;;
60478;SDS011;46321;48.398;11.754;2023-12-20T10:51:20;3.05;;;2.03;;
60478;SDS011;46321;48.398;11.754;2023-12-20T10:53:49;3.03;;;2.20;;
60478;SDS011;46321;48.398;11.754;2023-12-20T10:56:16;3.20;;;2.05;;
60478;SDS011;46321;48.398;11.754;2023-12-20T10:58:46;2.75;;;2.00;;
60478;SDS011;46321;48.398;11.754;2023-12-20T11:01:13;2.95;;;1.90;;
60478;SDS011;46321;48.398;11.754;2023-12-20T11:03:44;3.58;;;2.20;;
60478;SDS011;46321;48.398;11.754;2023-12-20T11:08:47;3.63;;;2.13;;
60478;SDS011;46321;48.398;11.754;2023-12-20T11:14:04;3.30;;;2.13;;
60478;SDS011;46321;48.398;11.754;2023-12-20T11:16:36;3.17;;;2.15;;
60478;SDS011;46321;48.398;11.754;2023-12-20T11:19:05;2.78;;;2.10;;
60478;SDS011;46321;48.398;11.754;2023-12-20T11:21:31;2.40;;;1.80;;
60478;SDS011;46321;48.398;11.754;2023-12-20T11:23:57;3.80;;;2.10;;
60478;SDS011;46321;48.398;11.754;2023-12-20T11:26:23;3.63;;;2.22;;
60478;SDS011;46321;48.398;11.754;2023-12-20T11:28:52;3.88;;;2.47;;
60478;SDS011;46321;48.398;11.754;2023-12-20T11:31:18;3.72;;;2.00;;
60478;SDS011;46321;48.398;11.754;2023-12-20T11:33:44;4.03;;;2.47;;
60478;SDS011;46321;48.398;11.754;2023-12-20T11:36:13;3.10;;;2.05;;
60478;SDS011;46321;48.398;11.754;2023-12-20T11:38:56;3.92;;;2.33;;
60478;SDS011;46321;48.398;11.754;2023-12-20T11:41:22;3.88;;;2.50;;
60478;SDS011;46321;48.398;11.754;2023-12-20T11:43:52;3.08;;;2.15;;
60478;SDS011;46321;48.398;11.754;2023-12-20T11:46:19;3.17;;;1.98;;
60478;SDS011;46321;48.398;11.754;2023-12-20T11:48:45;3.15;;;2.00;;
60478;SDS011;46321;48.398;11.754;2023-12-20T11:51:12;2.67;;;1.90;;
60478;SDS011;46321;48.398;11.754;2023-12-20T11:53:38;3.00;;;2.00;;
60478;SDS011;46321;48.398;11.754;2023-12-20T11:56:07;2.47;;;1.80;;
60478;SDS011;46321;48.398;11.754;2023-12-20T11:58:33;4.72;;;1.85;;
60478;SDS011;46321;48.398;11.754;2023-12-20T12:00:59;2.75;;;1.80;;
60478;SDS011;46321;48.398;11.754;2023-12-20T12:03:24;2.13;;;1.50;;
60478;SDS011;46321;48.398;11.754;2023-12-20T12:05:50;2.67;;;1.65;;
60478;SDS011;46321;48.398;11.754;2023-12-20T12:08:16;2.20;;;1.55;;
60478;SDS011;46321;48.398;11.754;2023-12-20T12:10:42;2.30;;;1.40;;
60478;SDS011;46321;48.398;11.754;2023-12-20T12:13:08;2.42;;;1.50;;
60478;SDS011;46321;48.398;11.754;2023-12-20T12:15:34;2.55;;;1.63;;
60478;SDS011;46321;48.398;11.754;2023-12-20T12:18:00;2.15;;;1.52;;
60478;SDS011;46321;48.398;11.754;2023-12-20T12:20:26;3.42;;;1.80;;
60478;SDS011;46321;48.398;11.754;2023-12-20T12:23:01;1.95;;;1.50;;
60478;SDS011;46321;48.398;11.754;2023-12-20T12:25:28;2.97;;;1.95;;
60478;SDS011;46321;48.398;11.754;2023-12-20T12:27:55;2.60;;;1.77;;
60478;SDS011;46321;48.398;11.754;2023-12-20T12:30:21;2.42;;;1.55;;
60478;SDS011;46321;48.398;11.754;2023-12-20T12:32:46;2.55;;;1.70;;
60478;SDS011;46321;48.398;11.754;2023-12-20T12:35:11;2.70;;;1.63;;
60478;SDS011;46321;48.398;11.754;2023-12-20T12:37:40;2.58;;;1.73;;
60478;SDS011;46321;48.398;11.754;2023-12-20T12:40:07;2.92;;;1.60;;
60478;SDS011;46321;48.398;11.754;2023-12-20T12:42:36;14.27;;;6.13;;
60478;SDS011;46321;48.398;11.754;2023-12-20T12:45:02;2.97;;;1.63;;
60478;SDS011;46321;48.398;11.754;2023-12-20T12:47:28;2.13;;;1.27;;
60478;SDS011;46321;48.398;11.754;2023-12-20T12:49:53;2.13;;;1.30;;
60478;SDS011;46321;48.398;11.754;2023-12-20T12:52:19;2.25;;;1.15;;
60478;SDS011;46321;48.398;11.754;2023-12-20T12:54:45;2.20;;;1.27;;
60478;SDS011;46321;48.398;11.754;2023-12-20T12:57:10;2.30;;;1.40;;
60478;SDS011;46321;48.398;11.754;2023-12-20T12:59:36;1.50;;;1.05;;
60478;SDS011;46321;48.398;11.754;2023-12-20T13:02:02;1.45;;;1.10;;
60478;SDS011;46321;48.398;11.754;2023-12-20T13:04:27;2.60;;;1.15;;
60478;SDS011;46321;48.398;11.754;2023-12-20T13:06:52;2.17;;;1.40;;
60478;SDS011;46321;48.398;11.754;2023-12-20T13:09:18;2.63;;;1.50;;
60478;SDS011;46321;48.398;11.754;2023-12-20T13:11:44;3.35;;;2.00;;
60478;SDS011;46321;48.398;11.754;2023-12-20T13:14:09;1.77;;;1.17;;
60478;SDS011;46321;48.398;11.754;2023-12-20T13:16:40;2.70;;;1.38;;
60478;SDS011;46321;48.398;11.754;2023-12-20T13:19:06;2.13;;;1.20;;
60478;SDS011;46321;48.398;11.754;2023-12-20T13:21:31;3.20;;;1.30;;
60478;SDS011;46321;48.398;11.754;2023-12-20T13:23:56;2.65;;;1.50;;
60478;SDS011;46321;48.398;11.754;2023-12-20T13:26:21;2.22;;;1.20;;
60478;SDS011;46321;48.398;11.754;2023-12-20T13:28:47;1.77;;;1.08;;
60478;SDS011;46321;48.398;11.754;2023-12-20T13:31:12;2.90;;;1.10;;
60478;SDS011;46321;48.398;11.754;2023-12-20T13:33:37;1.98;;;1.23;;
60478;SDS011;46321;48.398;11.754;2023-12-20T13:36:03;1.95;;;1.13;;
60478;SDS011;46321;48.398;11.754;2023-12-20T13:38:29;3.17;;;1.17;;
60478;SDS011;46321;48.398;11.754;2023-12-20T13:40:54;1.45;;;1.05;;
60478;SDS011;46321;48.398;11.754;2023-12-20T13:43:20;1.52;;;1.10;;
60478;SDS011;46321;48.398;11.754;2023-12-20T13:45:47;1.45;;;1.10;;
60478;SDS011;46321;48.398;11.754;2023-12-20T13:48:12;2.08;;;1.35;;
60478;SDS011;46321;48.398;11.754;2023-12-20T13:50:38;2.05;;;1.45;;
60478;SDS011;46321;48.398;11.754;2023-12-20T13:53:03;2.05;;;1.35;;
60478;SDS011;46321;48.398;11.754;2023-12-20T13:55:29;3.30;;;1.30;;
60478;SDS011;46321;48.398;11.754;2023-12-20T13:57:55;1.40;;;1.08;;
60478;SDS011;46321;48.398;11.754;2023-12-20T14:00:21;2.88;;;1.25;;
60478;SDS011;46321;48.398;11.754;2023-12-20T14:02:47;4.75;;;1.17;;
60478;SDS011;46321;48.398;11.754;2023-12-20T14:05:13;3.38;;;0.90;;
60478;SDS011;46321;48.398;11.754;2023-12-20T14:07:41;3.88;;;1.23;;
60478;SDS011;46321;48.398;11.754;2023-12-20T14:10:10;2.60;;;1.30;;
60478;SDS011;46321;48.398;11.754;2023-12-20T14:12:36;3.17;;;1.30;;
60478;SDS011;46321;48.398;11.754;2023-12-20T14:15:03;2.13;;;1.33;;
60478;SDS011;46321;48.398;11.754;2023-12-20T14:17:28;1.95;;;1.13;;
60478;SDS011;46321;48.398;11.754;2023-12-20T14:19:54;5.10;;;1.80;;
60478;SDS011;46321;48.398;11.754;2023-12-20T14:22:19;3.60;;;1.20;;
60478;SDS011;46321;48.398;11.754;2023-12-20T14:24:45;6.38;;;1.30;;
60478;SDS011;46321;48.398;11.754;2023-12-20T14:27:10;2.75;;;1.15;;
60478;SDS011;46321;48.398;11.754;2023-12-20T14:29:36;3.97;;;0.90;;
60478;SDS011;46321;48.398;11.754;2023-12-20T14:32:02;3.38;;;1.30;;